sensor_id;sensor_type;location;lat;lon;timestamp;pressure;altitude;pressure_sealevel;temperature;humidity
71059;BME280;70265;47.576;19.270;2024-01-15T00:00:13;97577.47;;;-3.69;100.00
71059;BME280;70265;47.576;19.270;2024-01-15T00:01:14;97582.50;;;-3.67;100.00
71059;BME280;70265;47.576;19.270;2024-01-15T00:02:17;97575.63;;;-3.67;100.00
71059;BME280;70265;47.576;19.270;2024-01-15T00:03:19;97567.13;;;-3.67;100.00
71059;BME280;70265;47.576;19.270;2024-01-15T00:04:22;97566.84;;;-3.63;100.00
71059;BME280;70265;47.576;19.270;2024-01-15T00:05:23;97555.69;;;-3.62;100.00
71059;BME280;70265;47.576;19.270;2024-01-15T00:06:27;97557.41;;;-3.62;100.00
71059;BME280;70265;47.576;19.270;2024-01-15T00:07:31;97547.81;;;-3.58;100.00
71059;BME280;70265;47.576;19.270;2024-01-15T00:08:32;97550.25;;;-3.57;100.00
71059;BME280;70265;47.576;19.270;2024-01-15T00:09:36;97554.75;;;-3.61;100.00
71059;BME280;70265;47.576;19.270;2024-01-15T00:10:37;97553.94;;;-3.61;100.00
71059;BME280;70265;47.576;19.270;2024-01-15T00:11:41;97557.13;;;-3.57;100.00
71059;BME280;70265;47.576;19.270;2024-01-15T00:12:42;97552.44;;;-3.51;100.00
71059;BME280;70265;47.576;19.270;2024-01-15T00:13:46;97551.31;;;-3.47;100.00
71059;BME280;70265;47.576;19.270;2024-01-15T00:14:47;97553.97;;;-3.48;100.00
71059;BME280;70265;47.576;19.270;2024-01-15T00:15:50;97555.84;;;-3.50;100.00
71059;BME280;70265;47.576;19.270;2024-01-15T00:16:52;97553.06;;;-3.47;100.00
71059;BME280;70265;47.576;19.270;2024-01-15T00:17:55;97551.00;;;-3.42;100.00
71059;BME280;70265;47.576;19.270;2024-01-15T00:18:56;97551.56;;;-3.37;100.00
71059;BME280;70265;47.576;19.270;2024-01-15T00:20:00;97541.81;;;-3.32;100.00
71059;BME280;70265;47.576;19.270;2024-01-15T00:21:01;97543.25;;;-3.28;100.00
71059;BME280;70265;47.576;19.270;2024-01-15T00:22:04;97535.38;;;-3.25;100.00
71059;BME280;70265;47.576;19.270;2024-01-15T00:23:08;97529.00;;;-3.32;100.00
71059;BME280;70265;47.576;19.270;2024-01-15T00:24:08;97533.22;;;-3.31;100.00
71059;BME280;70265;47.576;19.270;2024-01-15T00:25:13;97530.44;;;-3.28;100.00
71059;BME280;70265;47.576;19.270;2024-01-15T00:26:14;97532.09;;;-3.27;100.00
71059;BME280;70265;47.576;19.270;2024-01-15T00:27:18;97524.28;;;-3.26;100.00
71059;BME280;70265;47.576;19.270;2024-01-15T00:28:19;97525.84;;;-3.23;100.00
71059;BME280;70265;47.576;19.270;2024-01-15T00:29:23;97530.03;;;-3.22;100.00
71059;BME280;70265;47.576;19.270;2024-01-15T00:30:24;97525.75;;;-3.22;100.00
71059;BME280;70265;47.576;19.270;2024-01-15T00:31:28;97521.94;;;-3.16;100.00
71059;BME280;70265;47.576;19.270;2024-01-15T00:32:30;97527.06;;;-3.16;100.00
71059;BME280;70265;47.576;19.270;2024-01-15T00:33:34;97522.69;;;-3.14;100.00
71059;BME280;70265;47.576;19.270;2024-01-15T00:34:36;97512.41;;;-3.14;100.00
71059;BME280;70265;47.576;19.270;2024-01-15T00:35:39;97511.81;;;-3.18;100.00
71059;BME280;70265;47.576;19.270;2024-01-15T00:36:40;97502.56;;;-3.20;100.00
71059;BME280;70265;47.576;19.270;2024-01-15T00:37:41;97504.00;;;-3.16;100.00
71059;BME280;70265;47.576;19.270;2024-01-15T00:38:48;97498.06;;;-3.17;100.00
71059;BME280;70265;47.576;19.270;2024-01-15T00:39:49;97496.50;;;-3.19;100.00
71059;BME280;70265;47.576;19.270;2024-01-15T00:40:53;97501.44;;;-3.16;100.00
71059;BME280;70265;47.576;19.270;2024-01-15T00:41:54;97497.25;;;-3.17;100.00
71059;BME280;70265;47.576;19.270;2024-01-15T00:42:57;97496.13;;;-3.13;100.00
71059;BME280;70265;47.576;19.270;2024-01-15T00:43:58;97502.56;;;-3.08;100.00
71059;BME280;70265;47.576;19.270;2024-01-15T00:45:04;97494.69;;;-3.04;100.00
71059;BME280;70265;47.576;19.270;2024-01-15T00:46:07;97491.81;;;-3.00;100.00
71059;BME280;70265;47.576;19.270;2024-01-15T00:47:11;97494.16;;;-2.97;100.00
71059;BME280;70265;47.576;19.270;2024-01-15T00:48:12;97497.22;;;-2.92;100.00
71059;BME280;70265;47.576;19.270;2024-01-15T00:49:15;97500.94;;;-2.83;100.00
71059;BME280;70265;47.576;19.270;2024-01-15T00:50:16;97499.91;;;-2.81;100.00
71059;BME280;70265;47.576;19.270;2024-01-15T00:51:20;97508.22;;;-2.90;100.00
71059;BME280;70265;47.576;19.270;2024-01-15T00:52:21;97501.53;;;-2.92;100.00
71059;BME280;70265;47.576;19.270;2024-01-15T00:53:22;97494.16;;;-2.97;100.00
71059;BME280;70265;47.576;19.270;2024-01-15T00:54:28;97501.75;;;-2.95;100.00
71059;BME280;70265;47.576;19.270;2024-01-15T00:55:29;97496.41;;;-2.92;100.00
71059;BME280;70265;47.576;19.270;2024-01-15T00:56:33;97494.66;;;-2.92;100.00
71059;BME280;70265;47.576;19.270;2024-01-15T00:57:33;97494.38;;;-2.87;100.00
71059;BME280;70265;47.576;19.270;2024-01-15T00:58:37;97493.34;;;-2.85;100.00
71059;BME280;70265;47.576;19.270;2024-01-15T00:59:38;97484.94;;;-2.87;100.00
71059;BME280;70265;47.576;19.270;2024-01-15T01:00:42;97489.84;;;-2.84;100.00
71059;BME280;70265;47.576;19.270;2024-01-15T01:01:43;97487.78;;;-2.79;100.00
71059;BME280;70265;47.576;19.270;2024-01-15T01:02:47;97484.91;;;-2.74;100.00
71059;BME280;70265;47.576;19.270;2024-01-15T01:03:48;97485.31;;;-2.68;100.00
71059;BME280;70265;47.576;19.270;2024-01-15T01:04:51;97485.09;;;-2.65;100.00
71059;BME280;70265;47.576;19.270;2024-01-15T01:05:52;97480.91;;;-2.66;100.00
71059;BME280;70265;47.576;19.270;2024-01-15T01:06:53;97481.84;;;-2.67;100.00
71059;BME280;70265;47.576;19.270;2024-01-15T01:07:56;97480.91;;;-2.66;100.00
71059;BME280;70265;47.576;19.270;2024-01-15T01:08:57;97482.88;;;-2.69;100.00
71059;BME280;70265;47.576;19.270;2024-01-15T01:10:05;97476.09;;;-2.70;100.00
71059;BME280;70265;47.576;19.270;2024-01-15T01:11:06;97479.69;;;-2.73;100.00
71059;BME280;70265;47.576;19.270;2024-01-15T01:12:10;97471.06;;;-2.72;100.00
71059;BME280;70265;47.576;19.270;2024-01-15T01:13:11;97482.03;;;-2.70;100.00
71059;BME280;70265;47.576;19.270;2024-01-15T01:14:14;97477.63;;;-2.68;100.00
71059;BME280;70265;47.576;19.270;2024-01-15T01:15:15;97480.91;;;-2.66;100.00
71059;BME280;70265;47.576;19.270;2024-01-15T01:16:20;97474.84;;;-2.65;100.00
71059;BME280;70265;47.576;19.270;2024-01-15T01:17:21;97473.22;;;-2.66;100.00
71059;BME280;70265;47.576;19.270;2024-01-15T01:18:24;97469.00;;;-2.67;100.00
71059;BME280;70265;47.576;19.270;2024-01-15T01:19:25;97464.56;;;-2.65;100.00
71059;BME280;70265;47.576;19.270;2024-01-15T01:20:30;97459.44;;;-2.65;100.00
71059;BME280;70265;47.576;19.270;2024-01-15T01:21:31;97454.91;;;-2.61;100.00
71059;BME280;70265;47.576;19.270;2024-01-15T01:22:31;97455.53;;;-2.58;100.00
71059;BME280;70265;47.576;19.270;2024-01-15T01:23:35;97459.03;;;-2.59;100.00
71059;BME280;70265;47.576;19.270;2024-01-15T01:24:36;97451.34;;;-2.59;100.00
71059;BME280;70265;47.576;19.270;2024-01-15T01:25:42;97450.63;;;-2.61;100.00
71059;BME280;70265;47.576;19.270;2024-01-15T01:26:43;97455.44;;;-2.56;100.00
71059;BME280;70265;47.576;19.270;2024-01-15T01:27:47;97450.19;;;-2.54;100.00
71059;BME280;70265;47.576;19.270;2024-01-15T01:28:48;97435.81;;;-2.57;100.00
71059;BME280;70265;47.576;19.270;2024-01-15T01:29:51;97444.84;;;-2.51;100.00
71059;BME280;70265;47.576;19.270;2024-01-15T01:30:53;97441.34;;;-2.50;100.00
71059;BME280;70265;47.576;19.270;2024-01-15T01:31:56;97442.09;;;-2.48;100.00
71059;BME280;70265;47.576;19.270;2024-01-15T01:32:57;97443.69;;;-2.47;100.00
71059;BME280;70265;47.576;19.270;2024-01-15T01:34:01;97441.97;;;-2.47;100.00
71059;BME280;70265;47.576;19.270;2024-01-15T01:35:03;97438.47;;;-2.46;100.00
71059;BME280;70265;47.576;19.270;2024-01-15T01:36:07;97447.59;;;-2.42;100.00
71059;BME280;70265;47.576;19.270;2024-01-15T01:37:11;97453.34;;;-2.38;100.00
71059;BME280;70265;47.576;19.270;2024-01-15T01:38:13;97448.91;;;-2.36;100.00
71059;BME280;70265;47.576;19.270;2024-01-15T01:39:14;97443.78;;;-2.36;100.00
71059;BME280;70265;47.576;19.270;2024-01-15T01:40:19;97444.47;;;-2.34;100.00
71059;BME280;70265;47.576;19.270;2024-01-15T01:41:22;97438.41;;;-2.33;100.00
71059;BME280;70265;47.576;19.270;2024-01-15T01:42:24;97434.94;;;-2.32;100.00
71059;BME280;70265;47.576;19.270;2024-01-15T01:43:28;97428.06;;;-2.32;100.00
71059;BME280;70265;47.576;19.270;2024-01-15T01:44:29;97426.63;;;-2.36;100.00
71059;BME280;70265;47.576;19.270;2024-01-15T01:45:32;97435.38;;;-2.38;100.00
71059;BME280;70265;47.576;19.270;2024-01-15T01:46:34;97428.81;;;-2.42;100.00
71059;BME280;70265;47.576;19.270;2024-01-15T01:47:40;97429.41;;;-2.39;100.00
71059;BME280;70265;47.576;19.270;2024-01-15T01:48:42;97415.63;;;-2.38;100.00
71059;BME280;70265;47.576;19.270;2024-01-15T01:49:43;97423.69;;;-2.42;100.00
71059;BME280;70265;47.576;19.270;2024-01-15T01:50:46;97420.97;;;-2.41;100.00
71059;BME280;70265;47.576;19.270;2024-01-15T01:51:48;97426.94;;;-2.40;100.00
71059;BME280;70265;47.576;19.270;2024-01-15T01:52:51;97415.63;;;-2.38;100.00
71059;BME280;70265;47.576;19.270;2024-01-15T01:53:52;97411.22;;;-2.36;100.00
71059;BME280;70265;47.576;19.270;2024-01-15T01:54:57;97410.41;;;-2.36;100.00
71059;BME280;70265;47.576;19.270;2024-01-15T01:55:58;97403.53;;;-2.36;100.00
71059;BME280;70265;47.576;19.270;2024-01-15T01:57:05;97402.59;;;-2.35;100.00
71059;BME280;70265;47.576;19.270;2024-01-15T01:58:07;97407.31;;;-2.41;100.00
71059;BME280;70265;47.576;19.270;2024-01-15T01:59:11;97410.84;;;-2.42;100.00
71059;BME280;70265;47.576;19.270;2024-01-15T02:00:13;97408.16;;;-2.41;100.00
71059;BME280;70265;47.576;19.270;2024-01-15T02:01:18;97400.22;;;-2.38;100.00
71059;BME280;70265;47.576;19.270;2024-01-15T02:02:20;97398.38;;;-2.36;100.00
71059;BME280;70265;47.576;19.270;2024-01-15T02:03:24;97396.66;;;-2.35;100.00
71059;BME280;70265;47.576;19.270;2024-01-15T02:04:26;97392.44;;;-2.36;100.00
71059;BME280;70265;47.576;19.270;2024-01-15T02:05:30;97390.09;;;-2.39;100.00
71059;BME280;70265;47.576;19.270;2024-01-15T02:06:31;97385.78;;;-2.39;100.00
71059;BME280;70265;47.576;19.270;2024-01-15T02:07:35;97388.94;;;-2.35;100.00
71059;BME280;70265;47.576;19.270;2024-01-15T02:08:36;97383.59;;;-2.32;100.00
71059;BME280;70265;47.576;19.270;2024-01-15T02:09:41;97379.38;;;-2.33;100.00
71059;BME280;70265;47.576;19.270;2024-01-15T02:10:42;97378.22;;;-2.29;100.00
71059;BME280;70265;47.576;19.270;2024-01-15T02:11:46;97373.91;;;-2.29;100.00
71059;BME280;70265;47.576;19.270;2024-01-15T02:12:50;97380.56;;;-2.26;100.00
71059;BME280;70265;47.576;19.270;2024-01-15T02:13:54;97375.44;;;-2.26;100.00
71059;BME280;70265;47.576;19.270;2024-01-15T02:14:55;97387.34;;;-2.25;100.00
71059;BME280;70265;47.576;19.270;2024-01-15T02:15:59;97381.41;;;-2.26;100.00
71059;BME280;70265;47.576;19.270;2024-01-15T02:17:00;97384.78;;;-2.25;100.00
71059;BME280;70265;47.576;19.270;2024-01-15T02:18:05;97375.53;;;-2.28;100.00
71059;BME280;70265;47.576;19.270;2024-01-15T02:19:14;97378.09;;;-2.28;100.00
71059;BME280;70265;47.576;19.270;2024-01-15T02:20:19;97382.22;;;-2.25;100.00
71059;BME280;70265;47.576;19.270;2024-01-15T02:21:20;97378.94;;;-2.27;100.00
71059;BME280;70265;47.576;19.270;2024-01-15T02:22:23;97376.50;;;-2.29;100.00
71059;BME280;70265;47.576;19.270;2024-01-15T02:23:27;97380.91;;;-2.31;100.00
71059;BME280;70265;47.576;19.270;2024-01-15T02:24:31;97378.44;;;-2.32;100.00
71059;BME280;70265;47.576;19.270;2024-01-15T02:25:32;97378.69;;;-2.35;100.00
71059;BME280;70265;47.576;19.270;2024-01-15T02:26:36;97368.28;;;-2.34;100.00
71059;BME280;70265;47.576;19.270;2024-01-15T02:27:38;97367.59;;;-2.36;100.00
71059;BME280;70265;47.576;19.270;2024-01-15T02:28:42;97382.88;;;-2.34;100.00
71059;BME280;70265;47.576;19.270;2024-01-15T02:29:45;97375.97;;;-2.34;100.00
71059;BME280;70265;47.576;19.270;2024-01-15T02:30:48;97376.81;;;-2.33;100.00
71059;BME280;70265;47.576;19.270;2024-01-15T02:31:49;97390.34;;;-2.31;100.00
71059;BME280;70265;47.576;19.270;2024-01-15T02:32:53;97381.72;;;-2.30;100.00
71059;BME280;70265;47.576;19.270;2024-01-15T02:33:54;97375.53;;;-2.28;100.00
71059;BME280;70265;47.576;19.270;2024-01-15T02:34:57;97372.88;;;-2.26;100.00
71059;BME280;70265;47.576;19.270;2024-01-15T02:35:58;97386.41;;;-2.24;100.00
71059;BME280;70265;47.576;19.270;2024-01-15T02:37:03;97392.38;;;-2.24;100.00
71059;BME280;70265;47.576;19.270;2024-01-15T02:38:04;97374.41;;;-2.24;100.00
71059;BME280;70265;47.576;19.270;2024-01-15T02:39:10;97382.44;;;-2.28;100.00
71059;BME280;70265;47.576;19.270;2024-01-15T02:40:11;97381.50;;;-2.27;100.00
71059;BME280;70265;47.576;19.270;2024-01-15T02:41:15;97384.06;;;-2.27;100.00
71059;BME280;70265;47.576;19.270;2024-01-15T02:42:16;97373.91;;;-2.29;100.00
71059;BME280;70265;47.576;19.270;2024-01-15T02:43:19;97374.84;;;-2.30;100.00
71059;BME280;70265;47.576;19.270;2024-01-15T02:44:20;97371.66;;;-2.33;100.00
71059;BME280;70265;47.576;19.270;2024-01-15T02:45:24;97369.44;;;-2.38;100.00
71059;BME280;70265;47.576;19.270;2024-01-15T02:46:25;97360.31;;;-2.42;100.00
71059;BME280;70265;47.576;19.270;2024-01-15T02:47:28;97357.16;;;-2.45;100.00
71059;BME280;70265;47.576;19.270;2024-01-15T02:48:29;97360.75;;;-2.48;100.00
71059;BME280;70265;47.576;19.270;2024-01-15T02:49:33;97358.63;;;-2.54;100.00
71059;BME280;70265;47.576;19.270;2024-01-15T02:50:34;97353.00;;;-2.59;100.00
71059;BME280;70265;47.576;19.270;2024-01-15T02:51:37;97353.91;;;-2.60;100.00
71059;BME280;70265;47.576;19.270;2024-01-15T02:52:38;97361.31;;;-2.68;100.00
71059;BME280;70265;47.576;19.270;2024-01-15T02:53:42;97359.50;;;-2.79;100.00
71059;BME280;70265;47.576;19.270;2024-01-15T02:54:45;97343.50;;;-2.82;100.00
71059;BME280;70265;47.576;19.270;2024-01-15T02:55:49;97349.25;;;-2.79;100.00
71059;BME280;70265;47.576;19.270;2024-01-15T02:56:50;97357.72;;;-2.89;100.00
71059;BME280;70265;47.576;19.270;2024-01-15T02:57:53;97351.38;;;-2.96;100.00
71059;BME280;70265;47.576;19.270;2024-01-15T02:58:54;97350.22;;;-2.92;100.00
71059;BME280;70265;47.576;19.270;2024-01-15T02:59:55;97353.50;;;-2.90;100.00
71059;BME280;70265;47.576;19.270;2024-01-15T03:00:59;97348.28;;;-3.01;100.00
71059;BME280;70265;47.576;19.270;2024-01-15T03:02:00;97351.91;;;-3.04;100.00
71059;BME280;70265;47.576;19.270;2024-01-15T03:03:04;97342.56;;;-3.05;100.00
71059;BME280;70265;47.576;19.270;2024-01-15T03:04:05;97351.47;;;-2.98;100.00
71059;BME280;70265;47.576;19.270;2024-01-15T03:05:09;97342.63;;;-2.94;100.00
71059;BME280;70265;47.576;19.270;2024-01-15T03:06:10;97344.38;;;-2.94;100.00
71059;BME280;70265;47.576;19.270;2024-01-15T03:07:13;97338.66;;;-2.98;100.00
71059;BME280;70265;47.576;19.270;2024-01-15T03:08:14;97339.91;;;-3.03;100.00
71059;BME280;70265;47.576;19.270;2024-01-15T03:09:18;97347.19;;;-3.10;100.00
71059;BME280;70265;47.576;19.270;2024-01-15T03:10:21;97344.03;;;-3.14;100.00
71059;BME280;70265;47.576;19.270;2024-01-15T03:11:25;97340.63;;;-3.14;100.00
71059;BME280;70265;47.576;19.270;2024-01-15T03:12:26;97342.69;;;-3.19;100.00
71059;BME280;70265;47.576;19.270;2024-01-15T03:13:30;97341.28;;;-3.23;100.00
71059;BME280;70265;47.576;19.270;2024-01-15T03:14:31;97335.41;;;-3.25;100.00
71059;BME280;70265;47.576;19.270;2024-01-15T03:15:34;97336.47;;;-3.28;100.00
71059;BME280;70265;47.576;19.270;2024-01-15T03:16:35;97338.09;;;-3.27;100.00
71059;BME280;70265;47.576;19.270;2024-01-15T03:17:39;97340.75;;;-3.28;100.00
71059;BME280;70265;47.576;19.270;2024-01-15T03:18:41;97338.38;;;-3.19;100.00
71059;BME280;70265;47.576;19.270;2024-01-15T03:19:42;97340.13;;;-3.19;100.00
71059;BME280;70265;47.576;19.270;2024-01-15T03:20:46;97328.25;;;-3.20;100.00
71059;BME280;70265;47.576;19.270;2024-01-15T03:21:47;97323.72;;;-3.17;100.00
71059;BME280;70265;47.576;19.270;2024-01-15T03:22:50;97329.25;;;-3.23;100.00
71059;BME280;70265;47.576;19.270;2024-01-15T03:23:51;97330.28;;;-3.25;100.00
71059;BME280;70265;47.576;19.270;2024-01-15T03:24:55;97322.91;;;-3.30;100.00
71059;BME280;70265;47.576;19.270;2024-01-15T03:25:58;97326.28;;;-3.29;100.00
71059;BME280;70265;47.576;19.270;2024-01-15T03:27:02;97323.34;;;-3.36;100.00
71059;BME280;70265;47.576;19.270;2024-01-15T03:28:04;97318.31;;;-3.37;100.00
71059;BME280;70265;47.576;19.270;2024-01-15T03:29:07;97319.25;;;-3.38;100.00
71059;BME280;70265;47.576;19.270;2024-01-15T03:30:10;97322.72;;;-3.39;100.00
71059;BME280;70265;47.576;19.270;2024-01-15T03:31:14;97315.16;;;-3.41;100.00
71059;BME280;70265;47.576;19.270;2024-01-15T03:32:15;97320.28;;;-3.41;100.00
71059;BME280;70265;47.576;19.270;2024-01-15T03:33:20;97308.69;;;-3.46;100.00
71059;BME280;70265;47.576;19.270;2024-01-15T03:34:20;97305.13;;;-3.44;100.00
71059;BME280;70265;47.576;19.270;2024-01-15T03:35:24;97301.72;;;-3.44;100.00
71059;BME280;70265;47.576;19.270;2024-01-15T03:36:29;97320.66;;;-3.47;100.00
71059;BME280;70265;47.576;19.270;2024-01-15T03:37:33;97323.66;;;-3.53;100.00
71059;BME280;70265;47.576;19.270;2024-01-15T03:38:34;97323.44;;;-3.50;100.00
71059;BME280;70265;47.576;19.270;2024-01-15T03:39:37;97322.53;;;-3.49;100.00
71059;BME280;70265;47.576;19.270;2024-01-15T03:40:38;97319.06;;;-3.48;100.00
71059;BME280;70265;47.576;19.270;2024-01-15T03:41:44;97321.72;;;-3.49;100.00
71059;BME280;70265;47.576;19.270;2024-01-15T03:42:45;97325.41;;;-3.53;100.00
71059;BME280;70265;47.576;19.270;2024-01-15T03:43:49;97325.09;;;-3.62;100.00
71059;BME280;70265;47.576;19.270;2024-01-15T03:44:50;97333.63;;;-3.61;100.00
71059;BME280;70265;47.576;19.270;2024-01-15T03:45:53;97321.22;;;-3.54;100.00
71059;BME280;70265;47.576;19.270;2024-01-15T03:46:54;97305.41;;;-3.48;100.00
71059;BME280;70265;47.576;19.270;2024-01-15T03:47:58;97298.22;;;-3.43;100.00
71059;BME280;70265;47.576;19.270;2024-01-15T03:48:59;97286.00;;;-3.40;100.00
71059;BME280;70265;47.576;19.270;2024-01-15T03:50:04;97311.03;;;-3.43;100.00
71059;BME280;70265;47.576;19.270;2024-01-15T03:51:06;97332.47;;;-3.57;100.00
71059;BME280;70265;47.576;19.270;2024-01-15T03:52:09;97338.19;;;-3.53;100.00
71059;BME280;70265;47.576;19.270;2024-01-15T03:53:10;97330.00;;;-3.46;100.00
71059;BME280;70265;47.576;19.270;2024-01-15T03:54:14;97333.09;;;-3.41;100.00
71059;BME280;70265;47.576;19.270;2024-01-15T03:55:15;97334.63;;;-3.38;100.00
71059;BME280;70265;47.576;19.270;2024-01-15T03:56:18;97331.34;;;-3.40;100.00
71059;BME280;70265;47.576;19.270;2024-01-15T03:57:22;97327.22;;;-3.43;100.00
71059;BME280;70265;47.576;19.270;2024-01-15T03:58:26;97331.53;;;-3.43;100.00
71059;BME280;70265;47.576;19.270;2024-01-15T03:59:27;97336.88;;;-3.46;100.00
71059;BME280;70265;47.576;19.270;2024-01-15T04:00:30;97342.94;;;-3.47;100.00
71059;BME280;70265;47.576;19.270;2024-01-15T04:01:31;97348.78;;;-3.45;100.00
71059;BME280;70265;47.576;19.270;2024-01-15T04:02:35;97341.69;;;-3.42;100.00
71059;BME280;70265;47.576;19.270;2024-01-15T04:03:36;97331.97;;;-3.37;100.00
71059;BME280;70265;47.576;19.270;2024-01-15T04:04:40;97327.25;;;-3.30;100.00
71059;BME280;70265;47.576;19.270;2024-01-15T04:05:44;97326.06;;;-3.26;100.00
71059;BME280;70265;47.576;19.270;2024-01-15T04:06:45;97326.06;;;-3.26;100.00
71059;BME280;70265;47.576;19.270;2024-01-15T04:07:46;97319.53;;;-3.30;100.00
71059;BME280;70265;47.576;19.270;2024-01-15T04:08:49;97326.00;;;-3.25;100.00
71059;BME280;70265;47.576;19.270;2024-01-15T04:09:50;97321.06;;;-3.28;100.00
71059;BME280;70265;47.576;19.270;2024-01-15T04:10:54;97311.53;;;-3.26;100.00
71059;BME280;70265;47.576;19.270;2024-01-15T04:11:55;97309.69;;;-3.24;100.00
71059;BME280;70265;47.576;19.270;2024-01-15T04:12:59;97311.44;;;-3.24;100.00
71059;BME280;70265;47.576;19.270;2024-01-15T04:14:04;97314.44;;;-3.30;100.00
71059;BME280;70265;47.576;19.270;2024-01-15T04:15:06;97309.69;;;-3.36;100.00
71059;BME280;70265;47.576;19.270;2024-01-15T04:16:09;97309.00;;;-3.38;100.00
71059;BME280;70265;47.576;19.270;2024-01-15T04:17:11;97303.94;;;-3.40;100.00
71059;BME280;70265;47.576;19.270;2024-01-15T04:18:16;97308.91;;;-3.37;100.00
71059;BME280;70265;47.576;19.270;2024-01-15T04:19:17;97304.78;;;-3.39;100.00
71059;BME280;70265;47.576;19.270;2024-01-15T04:20:21;97293.72;;;-3.40;100.00
71059;BME280;70265;47.576;19.270;2024-01-15T04:21:22;97287.88;;;-3.42;100.00
71059;BME280;70265;47.576;19.270;2024-01-15T04:22:26;97290.44;;;-3.42;100.00
71059;BME280;70265;47.576;19.270;2024-01-15T04:23:27;97292.19;;;-3.42;100.00
71059;BME280;70265;47.576;19.270;2024-01-15T04:24:31;97292.38;;;-3.45;100.00
71059;BME280;70265;47.576;19.270;2024-01-15T04:25:32;97287.25;;;-3.45;100.00
71059;BME280;70265;47.576;19.270;2024-01-15T04:26:36;97289.91;;;-3.47;100.00
71059;BME280;70265;47.576;19.270;2024-01-15T04:27:37;97289.22;;;-3.49;100.00
71059;BME280;70265;47.576;19.270;2024-01-15T04:28:43;97289.13;;;-3.47;100.00
71059;BME280;70265;47.576;19.270;2024-01-15T04:29:44;97290.97;;;-3.49;100.00
71059;BME280;70265;47.576;19.270;2024-01-15T04:30:47;97292.81;;;-3.51;100.00
71059;BME280;70265;47.576;19.270;2024-01-15T04:31:48;97285.84;;;-3.49;100.00
71059;BME280;70265;47.576;19.270;2024-01-15T04:32:52;97278.16;;;-3.49;100.00
71059;BME280;70265;47.576;19.270;2024-01-15T04:33:53;97285.13;;;-3.51;100.00
71059;BME280;70265;47.576;19.270;2024-01-15T04:34:56;97283.78;;;-3.57;100.00
71059;BME280;70265;47.576;19.270;2024-01-15T04:36:01;97286.16;;;-3.67;100.00
71059;BME280;70265;47.576;19.270;2024-01-15T04:37:05;97279.94;;;-3.75;100.00
71059;BME280;70265;47.576;19.270;2024-01-15T04:38:08;97270.59;;;-3.76;100.00
71059;BME280;70265;47.576;19.270;2024-01-15T04:39:09;97281.66;;;-3.76;100.00
71059;BME280;70265;47.576;19.270;2024-01-15T04:40:14;97287.50;;;-3.74;100.00
71059;BME280;70265;47.576;19.270;2024-01-15T04:41:16;97281.38;;;-3.71;100.00
71059;BME280;70265;47.576;19.270;2024-01-15T04:42:19;97266.91;;;-3.72;100.00
71059;BME280;70265;47.576;19.270;2024-01-15T04:43:21;97282.38;;;-3.74;100.00
71059;BME280;70265;47.576;19.270;2024-01-15T04:44:27;97276.63;;;-3.77;100.00
71059;BME280;70265;47.576;19.270;2024-01-15T04:45:28;97275.22;;;-3.81;100.00
71059;BME280;70265;47.576;19.270;2024-01-15T04:46:31;97279.00;;;-3.87;100.00
71059;BME280;70265;47.576;19.270;2024-01-15T04:47:32;97272.97;;;-3.86;100.00
71059;BME280;70265;47.576;19.270;2024-01-15T04:48:37;97270.50;;;-3.87;100.00
71059;BME280;70265;47.576;19.270;2024-01-15T04:49:38;97269.88;;;-3.91;100.00
71059;BME280;70265;47.576;19.270;2024-01-15T04:50:41;97273.25;;;-3.90;100.00
71059;BME280;70265;47.576;19.270;2024-01-15T04:51:42;97275.00;;;-3.91;100.00
71059;BME280;70265;47.576;19.270;2024-01-15T04:52:46;97265.16;;;-3.97;100.00
71059;BME280;70265;47.576;19.270;2024-01-15T04:53:47;97265.78;;;-3.93;100.00
71059;BME280;70265;47.576;19.270;2024-01-15T04:54:50;97271.94;;;-3.96;100.00
71059;BME280;70265;47.576;19.270;2024-01-15T04:55:51;97270.28;;;-3.97;100.00
71059;BME280;70265;47.576;19.270;2024-01-15T04:56:55;97266.72;;;-4.07;100.00
71059;BME280;70265;47.576;19.270;2024-01-15T04:57:56;97265.69;;;-4.17;100.00
71059;BME280;70265;47.576;19.270;2024-01-15T04:58:59;97262.91;;;-4.14;100.00
71059;BME280;70265;47.576;19.270;2024-01-15T05:00:05;97280.22;;;-4.18;100.00
71059;BME280;70265;47.576;19.270;2024-01-15T05:01:15;97274.25;;;-4.18;100.00
71059;BME280;70265;47.576;19.270;2024-01-15T05:02:16;97279.59;;;-4.21;100.00
71059;BME280;70265;47.576;19.270;2024-01-15T05:03:20;97279.28;;;-4.17;100.00
71059;BME280;70265;47.576;19.270;2024-01-15T05:04:21;97268.34;;;-4.19;100.00
71059;BME280;70265;47.576;19.270;2024-01-15T05:05:25;97277.16;;;-4.23;100.00
71059;BME280;70265;47.576;19.270;2024-01-15T05:06:26;97281.44;;;-4.23;100.00
71059;BME280;70265;47.576;19.270;2024-01-15T05:07:30;97264.75;;;-4.29;100.00
71059;BME280;70265;47.576;19.270;2024-01-15T05:08:31;97254.69;;;-4.32;100.00
71059;BME280;70265;47.576;19.270;2024-01-15T05:09:32;97258.81;;;-4.29;100.00
71059;BME280;70265;47.576;19.270;2024-01-15T05:10:35;97273.63;;;-4.34;100.00
71059;BME280;70265;47.576;19.270;2024-01-15T05:11:36;97273.13;;;-4.39;100.00
71059;BME280;70265;47.576;19.270;2024-01-15T05:12:40;97279.16;;;-4.40;100.00
71059;BME280;70265;47.576;19.270;2024-01-15T05:13:40;97276.59;;;-4.40;100.00
71059;BME280;70265;47.576;19.270;2024-01-15T05:14:44;97282.34;;;-4.37;100.00
71059;BME280;70265;47.576;19.270;2024-01-15T05:15:48;97285.19;;;-4.41;100.00
71059;BME280;70265;47.576;19.270;2024-01-15T05:16:51;97278.63;;;-4.45;100.00
71059;BME280;70265;47.576;19.270;2024-01-15T05:17:52;97279.34;;;-4.43;100.00
71059;BME280;70265;47.576;19.270;2024-01-15T05:18:56;97276.81;;;-4.43;100.00
71059;BME280;70265;47.576;19.270;2024-01-15T05:19:57;97288.22;;;-4.49;100.00
71059;BME280;70265;47.576;19.270;2024-01-15T05:21:00;97290.91;;;-4.50;100.00
71059;BME280;70265;47.576;19.270;2024-01-15T05:22:01;97292.56;;;-4.49;100.00
71059;BME280;70265;47.576;19.270;2024-01-15T05:23:05;97297.97;;;-4.54;100.00